createdAt,value
2022-08-22T00:02:58.023Z,5.05
2022-08-22T00:03:01.812Z,3.15
2022-08-22T00:05:24.235Z,5.80
2022-08-22T00:08:07.592Z,5.85
2022-08-22T00:10:43.259Z,6.20
2022-08-22T00:13:19.728Z,5.50
2022-08-22T00:16:09.176Z,5.85
2022-08-22T00:18:51.052Z,5.35
2022-08-22T00:21:27.312Z,5.72
2022-08-22T00:24:15.436Z,5.22
2022-08-22T00:27:00.779Z,5.78
2022-08-22T00:29:45.674Z,5.50
2022-08-22T00:32:26.299Z,5.65
2022-08-22T00:35:17.502Z,5.78
2022-08-22T00:38:02.653Z,6.25
2022-08-22T00:40:52.614Z,5.32
2022-08-22T00:43:31.215Z,5.07
2022-08-22T00:46:00.554Z,5.30
2022-08-22T00:48:50.966Z,5.88
2022-08-22T00:51:40.374Z,5.38
2022-08-22T00:54:34.709Z,5.82
2022-08-22T00:57:26.236Z,6.78
2022-08-22T01:00:17.315Z,6.20
2022-08-22T01:03:21.524Z,6.85
2022-08-22T01:06:09.538Z,6.38
2022-08-22T01:08:51.279Z,6.53
2022-08-22T01:11:17.816Z,6.25
2022-08-22T01:13:55.942Z,7.13
2022-08-22T01:16:35.085Z,5.95
2022-08-22T01:19:39.345Z,7.35
2022-08-22T01:22:25.753Z,6.78
2022-08-22T01:25:29.322Z,6.10
2022-08-22T01:28:38.651Z,6.20
2022-08-22T01:31:32.132Z,6.15
2022-08-22T01:34:27.125Z,6.80
2022-08-22T01:37:12.029Z,6.53
2022-08-22T01:40:22.983Z,5.93
2022-08-22T01:43:16.508Z,6.75
2022-08-22T01:45:58.618Z,6.20
2022-08-22T01:49:10.632Z,6.43
2022-08-22T01:51:46.267Z,6.22
2022-08-22T01:54:26.637Z,5.68
2022-08-22T01:57:01.294Z,6.25
2022-08-22T01:59:42.401Z,6.72
2022-08-22T02:04:48.342Z,7.05
2022-08-22T02:07:17.585Z,6.18
2022-08-22T02:10:04.405Z,6.30
2022-08-22T02:12:56.848Z,7.50
2022-08-22T02:15:35.184Z,6.15
2022-08-22T02:18:09.114Z,6.57
2022-08-22T02:20:47.722Z,6.45
2022-08-22T02:23:23.153Z,6.18
2022-08-22T02:26:03.331Z,6.47
2022-08-22T02:28:39.032Z,6.47
2022-08-22T02:31:36.566Z,6.07
2022-08-22T02:34:20.367Z,5.63
2022-08-22T02:36:53.848Z,6.13
2022-08-22T02:40:27.412Z,6.03
2022-08-22T02:43:15.504Z,6.38
2022-08-22T02:46:02.048Z,6.05
2022-08-22T02:48:45.018Z,6.40
2022-08-22T02:51:39.659Z,5.95
2022-08-22T02:54:24.799Z,5.68
2022-08-22T02:57:11.397Z,5.63
2022-08-22T02:59:59.249Z,6.13
2022-08-22T03:02:33.699Z,6.30
2022-08-22T03:05:16.478Z,5.97
2022-08-22T03:07:59.777Z,5.53
2022-08-22T03:10:35.137Z,6.43
2022-08-22T03:13:12.462Z,5.97
2022-08-22T03:16:03.818Z,5.75
2022-08-22T03:18:48.608Z,6.03
2022-08-22T03:21:30.402Z,5.57
2022-08-22T03:24:25.574Z,6.32
2022-08-22T03:26:59.842Z,6.45
2022-08-22T03:29:38.400Z,7.40
2022-08-22T03:32:12.820Z,6.95
2022-08-22T03:34:55.053Z,6.78
2022-08-22T03:37:32.321Z,6.78
2022-08-22T03:40:19.967Z,6.35
2022-08-22T03:42:55.969Z,6.28
2022-08-22T03:45:38.576Z,5.47
2022-08-22T03:48:23.474Z,6.45
2022-08-22T03:50:55.896Z,5.32
2022-08-22T03:53:46.152Z,5.72
2022-08-22T03:57:00.561Z,5.97
2022-08-22T03:59:57.976Z,5.72
2022-08-22T04:02:44.512Z,5.72
2022-08-22T04:05:13.015Z,6.00
2022-08-22T04:07:50.723Z,6.07
2022-08-22T04:10:28.923Z,5.60
2022-08-22T04:13:49.348Z,5.93
2022-08-22T04:16:52.190Z,6.28
2022-08-22T04:19:24.829Z,5.95
2022-08-22T04:22:07.790Z,5.63
2022-08-22T04:24:52.879Z,5.88
2022-08-22T04:27:29.323Z,6.03
2022-08-22T04:30:14.607Z,6.22
2022-08-22T04:32:48.986Z,6.07
2022-08-22T04:35:43.064Z,6.25
2022-08-22T04:38:48.313Z,5.97
2022-08-22T04:41:24.360Z,6.20
2022-08-22T04:43:58.933Z,6.70
2022-08-22T04:46:38.800Z,6.50
2022-08-22T04:49:09.747Z,7.28
2022-08-22T04:51:47.631Z,7.22
2022-08-22T04:54:32.676Z,7.85
2022-08-22T04:57:21.430Z,7.80
2022-08-22T04:59:49.827Z,7.50
2022-08-22T05:02:25.066Z,8.18
2022-08-22T05:05:13.338Z,7.55
2022-08-22T05:07:46.770Z,7.38
2022-08-22T05:10:20.950Z,7.40
2022-08-22T05:13:00.499Z,7.75
2022-08-22T05:15:33.410Z,8.30
2022-08-22T05:18:09.422Z,7.25
2022-08-22T05:20:40.373Z,7.78
2022-08-22T05:23:30.046Z,7.47
2022-08-22T05:26:01.841Z,8.05
2022-08-22T05:28:34.462Z,8.40
2022-08-22T05:31:09.375Z,8.35
2022-08-22T05:33:45.563Z,8.52
2022-08-22T05:36:19.574Z,8.68
2022-08-22T05:38:51.414Z,8.45
2022-08-22T05:41:26.879Z,8.57
2022-08-22T05:43:55.305Z,8.80
2022-08-22T05:46:43.243Z,9.55
2022-08-22T05:49:20.878Z,9.35
2022-08-22T05:52:02.718Z,9.55
2022-08-22T05:54:34.673Z,9.55
2022-08-22T05:57:18.792Z,12.98
2022-08-22T05:59:49.819Z,10.02
2022-08-22T06:02:21.547Z,10.13
2022-08-22T06:04:54.706Z,10.18
2022-08-22T06:07:31.205Z,9.70
2022-08-22T06:10:26.449Z,10.07
2022-08-22T06:13:42.430Z,11.00
2022-08-22T06:16:21.494Z,11.27
2022-08-22T06:18:50.842Z,10.40
2022-08-22T06:21:26.293Z,10.27
2022-08-22T06:23:57.522Z,10.85
2022-08-22T06:29:00.672Z,11.23
2022-08-22T06:31:34.544Z,10.13
2022-08-22T06:34:39.939Z,11.27
2022-08-22T06:37:16.917Z,10.55
2022-08-22T06:39:49.298Z,12.02
2022-08-22T06:42:30.571Z,10.80
2022-08-22T06:45:02.854Z,12.13
2022-08-22T06:47:36.256Z,11.35
2022-08-22T06:50:13.623Z,10.80
2022-08-22T06:53:00.818Z,10.50
2022-08-22T06:55:30.076Z,10.63
2022-08-22T06:58:03.954Z,10.40
2022-08-22T07:00:34.613Z,11.68
2022-08-22T07:03:20.414Z,11.07
2022-08-22T07:05:47.341Z,11.70
2022-08-22T07:08:19.029Z,12.35
2022-08-22T07:10:59.732Z,12.15
2022-08-22T07:13:28.352Z,11.50
2022-08-22T07:15:59.106Z,12.15
2022-08-22T07:18:28.172Z,11.35
2022-08-22T07:21:04.172Z,10.85
2022-08-22T07:23:36.133Z,10.98
2022-08-22T07:26:22.591Z,11.23
2022-08-22T07:29:24.051Z,11.02
2022-08-22T07:34:38.089Z,10.57
2022-08-22T07:37:14.444Z,10.43
2022-08-22T07:39:54.162Z,11.65
2022-08-22T07:42:30.353Z,11.55
2022-08-22T07:45:06.921Z,11.30
2022-08-22T07:47:49.740Z,11.05
2022-08-22T07:50:22.975Z,11.45
2022-08-22T07:52:50.871Z,11.43
2022-08-22T07:55:22.867Z,11.40
2022-08-22T07:58:04.011Z,12.55
2022-08-22T08:00:32.425Z,12.15
2022-08-22T08:03:04.432Z,11.25
2022-08-22T08:05:35.910Z,11.13
2022-08-22T08:08:08.870Z,11.25
2022-08-22T08:10:42.507Z,10.73
2022-08-22T08:13:14.723Z,10.57
2022-08-22T08:15:45.810Z,10.13
2022-08-22T08:20:54.642Z,9.05
2022-08-22T08:23:23.321Z,9.75
2022-08-22T08:25:53.886Z,9.80
2022-08-22T08:28:34.619Z,10.32
2022-08-22T08:31:09.824Z,9.65
2022-08-22T08:33:42.056Z,9.30
2022-08-22T08:36:21.574Z,7.75
2022-08-22T08:38:58.119Z,8.43
2022-08-22T08:41:50.846Z,7.38
2022-08-22T08:44:40.883Z,8.90
2022-08-22T08:47:25.846Z,7.57
2022-08-22T08:49:55.166Z,7.18
2022-08-22T08:52:39.137Z,7.43
2022-08-22T08:55:21.849Z,6.72
2022-08-22T08:58:21.561Z,6.90
2022-08-22T09:01:02.442Z,5.82
2022-08-22T09:04:01.174Z,6.68
2022-08-22T09:07:01.935Z,5.63
2022-08-22T09:09:41.591Z,6.43
2022-08-22T09:12:26.291Z,6.07
2022-08-22T09:15:27.033Z,5.47
2022-08-22T09:18:24.364Z,5.55
2022-08-22T09:21:27.597Z,6.65
2022-08-22T09:24:16.260Z,5.43
2022-08-22T09:26:57.116Z,4.88
2022-08-22T09:35:08.043Z,4.68
2022-08-22T09:37:49.843Z,4.05
2022-08-22T09:40:29.251Z,4.65
2022-08-22T09:43:14.128Z,4.90
2022-08-22T09:46:03.083Z,4.18
2022-08-22T09:48:48.669Z,4.32
2022-08-22T09:51:32.709Z,3.95
2022-08-22T09:54:53.202Z,3.72
2022-08-22T09:57:28.649Z,4.50
2022-08-22T10:00:13.947Z,5.00
2022-08-22T10:03:03.304Z,4.18
2022-08-22T10:05:48.121Z,4.20
2022-08-22T10:08:14.764Z,4.63
2022-08-22T10:11:06.507Z,4.53
2022-08-22T10:13:57.720Z,5.25
2022-08-22T10:16:52.079Z,4.90
2022-08-22T10:19:36.236Z,5.05
2022-08-22T10:22:30.043Z,4.95
2022-08-22T10:25:09.521Z,4.95
2022-08-22T10:28:02.948Z,4.65
2022-08-22T10:30:54.907Z,5.05
2022-08-22T10:33:21.471Z,4.57
2022-08-22T10:36:12.960Z,4.05
2022-08-22T10:38:46.788Z,4.68
2022-08-22T10:41:32.311Z,5.53
2022-08-22T10:44:13.915Z,4.65
2022-08-22T10:46:51.879Z,4.43
2022-08-22T10:49:31.958Z,4.30
2022-08-22T10:52:39.705Z,4.13
2022-08-22T10:55:11.420Z,3.97
2022-08-22T10:57:53.147Z,4.53
2022-08-22T11:00:35.039Z,4.70
2022-08-22T11:03:21.844Z,3.75
2022-08-22T11:05:53.376Z,3.90
2022-08-22T11:08:34.870Z,3.85
2022-08-22T11:11:35.378Z,3.72
2022-08-22T11:14:12.077Z,4.65
2022-08-22T11:16:55.005Z,4.05
2022-08-22T11:19:28.097Z,4.05
2022-08-22T11:22:22.360Z,3.70
2022-08-22T11:25:11.746Z,4.25
2022-08-22T11:28:06.316Z,4.18
2022-08-22T11:31:07.172Z,3.78
2022-08-22T11:33:46.966Z,3.20
2022-08-22T11:36:26.167Z,3.60
2022-08-22T11:39:13.836Z,3.67
2022-08-22T11:41:48.459Z,3.75
2022-08-22T11:44:50.881Z,3.75
2022-08-22T11:47:26.509Z,3.53
2022-08-22T11:50:14.056Z,4.35
2022-08-22T11:52:56.726Z,3.58
2022-08-22T11:55:36.532Z,4.93
2022-08-22T11:58:12.574Z,3.58
2022-08-22T12:00:50.740Z,4.13
2022-08-22T12:03:35.772Z,4.38
2022-08-22T12:06:17.632Z,4.18
2022-08-22T12:08:49.576Z,7.32
2022-08-22T12:11:30.483Z,4.60
2022-08-22T12:16:54.978Z,3.30
2022-08-22T12:19:33.167Z,3.70
2022-08-22T12:22:28.962Z,3.53
2022-08-22T12:25:30.363Z,3.20
2022-08-22T12:28:36.559Z,3.40
2022-08-22T12:31:05.788Z,3.22
2022-08-22T12:33:46.322Z,3.17
2022-08-22T12:36:20.896Z,3.45
2022-08-22T12:39:15.361Z,3.40
2022-08-22T12:42:09.848Z,2.65
2022-08-22T12:44:42.795Z,3.17
2022-08-22T12:47:32.056Z,3.00
2022-08-22T12:50:31.569Z,4.15
2022-08-22T12:53:22.932Z,3.67
2022-08-22T12:56:05.005Z,7.57
2022-08-22T12:59:00.990Z,7.22
2022-08-22T13:01:39.174Z,3.60
2022-08-22T13:04:32.511Z,3.83
2022-08-22T13:07:24.639Z,3.58
2022-08-22T13:09:59.341Z,3.72
2022-08-22T13:12:36.982Z,5.55
2022-08-22T13:15:31.791Z,4.38
2022-08-22T13:18:25.089Z,5.40
2022-08-22T13:20:51.444Z,7.78
2022-08-22T13:23:24.857Z,3.88
2022-08-22T13:26:10.520Z,2.90
2022-08-22T13:32:00.474Z,3.88
2022-08-22T13:34:38.455Z,12.00
2022-08-22T13:37:11.497Z,5.10
2022-08-22T13:39:42.566Z,6.32
2022-08-22T13:42:20.383Z,4.53
2022-08-22T13:45:02.670Z,3.30
2022-08-22T13:47:32.484Z,3.13
2022-08-22T13:50:19.215Z,4.15
2022-08-22T13:53:10.628Z,4.97
2022-08-22T13:55:51.377Z,3.88
2022-08-22T13:58:46.607Z,3.70
2022-08-22T14:01:37.879Z,2.70
2022-08-22T14:04:35.868Z,4.95
2022-08-22T14:07:06.004Z,3.00
2022-08-22T14:09:54.295Z,3.25
2022-08-22T14:12:51.012Z,3.00
2022-08-22T14:15:44.668Z,3.60
2022-08-22T14:18:30.589Z,4.68
2022-08-22T14:21:40.575Z,7.15
2022-08-22T14:24:19.893Z,7.10
2022-08-22T14:26:53.894Z,3.85
2022-08-22T14:29:29.017Z,3.60
2022-08-22T14:32:11.988Z,7.13
2022-08-22T14:34:42.701Z,6.95
2022-08-22T14:37:21.720Z,8.23
2022-08-22T14:39:56.784Z,4.28
2022-08-22T14:42:30.450Z,5.38
2022-08-22T14:45:11.361Z,3.85
2022-08-22T14:47:55.676Z,2.60
2022-08-22T14:50:43.464Z,3.30
2022-08-22T14:53:24.963Z,5.18
2022-08-22T14:56:27.838Z,4.13
2022-08-22T14:59:02.326Z,5.45
2022-08-22T15:01:32.845Z,2.30
2022-08-22T15:04:02.726Z,7.32
2022-08-22T15:06:37.076Z,4.50
2022-08-22T15:09:26.617Z,4.57
2022-08-22T15:11:53.458Z,6.90
2022-08-22T15:14:27.227Z,4.25
2022-08-22T15:16:57.659Z,3.20
2022-08-22T15:19:34.621Z,3.10
2022-08-22T15:22:13.890Z,6.80
2022-08-22T15:24:50.799Z,4.68
2022-08-22T15:27:25.302Z,5.78
2022-08-22T15:30:02.566Z,3.58
2022-08-22T15:32:31.625Z,3.85
2022-08-22T15:35:08.818Z,5.32
2022-08-22T15:37:54.106Z,3.40
2022-08-22T15:40:40.619Z,2.80
2022-08-22T15:43:28.886Z,2.58
2022-08-22T15:46:32.949Z,2.72
2022-08-22T15:49:19.469Z,2.83
2022-08-22T15:52:13.082Z,4.47
2022-08-22T15:54:46.757Z,7.72
2022-08-22T15:57:25.606Z,3.55
2022-08-22T15:59:58.750Z,3.63
2022-08-22T16:02:28.689Z,4.80
2022-08-22T16:05:07.347Z,3.17
2022-08-22T16:07:39.790Z,4.07
2022-08-22T16:10:30.080Z,2.78
2022-08-22T16:13:34.103Z,2.78
2022-08-22T16:16:45.121Z,2.17
2022-08-22T16:19:24.402Z,2.40
2022-08-22T16:21:54.220Z,3.10
2022-08-22T16:24:21.720Z,3.90
2022-08-22T16:26:48.893Z,2.40
2022-08-22T16:29:41.599Z,2.45
2022-08-22T16:32:11.387Z,1.88
2022-08-22T16:34:37.973Z,2.00
2022-08-22T16:37:14.591Z,1.98
2022-08-22T16:40:03.318Z,2.10
2022-08-22T16:43:14.855Z,2.10
2022-08-22T16:45:48.541Z,2.25
2022-08-22T16:48:35.433Z,1.73
2022-08-22T16:51:13.592Z,2.20
2022-08-22T16:53:45.973Z,2.33
2022-08-22T16:56:28.441Z,1.90
2022-08-22T16:59:44.697Z,2.63
2022-08-22T17:02:26.992Z,2.22
2022-08-22T17:04:59.439Z,1.90
2022-08-22T17:07:47.421Z,1.88
2022-08-22T17:10:37.718Z,1.98
2022-08-22T17:13:27.497Z,3.47
2022-08-22T17:16:32.403Z,1.92
2022-08-22T17:18:58.946Z,1.88
2022-08-22T17:21:51.709Z,1.52
2022-08-22T17:24:33.479Z,1.80
2022-08-22T17:27:08.176Z,2.03
2022-08-22T17:29:40.048Z,1.70
2022-08-22T17:32:09.566Z,2.35
2022-08-22T17:35:02.246Z,2.17
2022-08-22T17:37:41.056Z,2.08
2022-08-22T17:40:17.688Z,1.90
2022-08-22T17:43:21.545Z,1.90
2022-08-22T17:46:06.319Z,2.30
2022-08-22T17:48:48.077Z,2.42
2022-08-22T17:51:30.498Z,1.85
2022-08-22T17:54:06.179Z,2.38
2022-08-22T17:56:43.775Z,2.50
2022-08-22T17:59:23.482Z,2.20
2022-08-22T18:01:57.793Z,2.50
2022-08-22T18:05:04.723Z,2.08
2022-08-22T18:07:53.286Z,2.40
2022-08-22T18:10:28.632Z,2.45
2022-08-22T18:13:27.480Z,2.47
2022-08-22T18:16:27.131Z,2.15
2022-08-22T18:19:11.821Z,2.05
2022-08-22T18:21:50.641Z,2.70
2022-08-22T18:24:33.270Z,2.10
2022-08-22T18:27:09.449Z,2.35
2022-08-22T18:30:11.513Z,2.53
2022-08-22T18:32:48.537Z,2.30
2022-08-22T18:35:21.943Z,2.20
2022-08-22T18:37:48.528Z,2.80
2022-08-22T18:40:33.402Z,2.50
2022-08-22T18:43:13.583Z,1.95
2022-08-22T18:45:45.935Z,2.70
2022-08-22T18:48:26.459Z,2.63
2022-08-22T18:51:13.486Z,2.50
2022-08-22T18:53:50.522Z,2.60
2022-08-22T18:57:04.103Z,2.38
2022-08-22T18:59:43.815Z,2.25
2022-08-22T19:02:39.607Z,2.80
2022-08-22T19:05:21.683Z,2.20
2022-08-22T19:08:07.132Z,2.00
2022-08-22T19:10:39.354Z,2.30
2022-08-22T19:13:11.664Z,2.78
2022-08-22T19:15:48.891Z,2.47
2022-08-22T19:18:27.104Z,2.70
2022-08-22T19:21:31.866Z,2.88
2022-08-22T19:23:58.850Z,2.97
2022-08-22T19:26:33.704Z,2.83
2022-08-22T19:29:08.775Z,2.80
2022-08-22T19:31:41.773Z,2.50
2022-08-22T19:34:29.347Z,2.60
2022-08-22T19:37:32.015Z,2.42
2022-08-22T19:40:07.391Z,2.60
2022-08-22T19:42:38.299Z,2.90
2022-08-22T19:45:29.283Z,2.58
2022-08-22T19:50:33.046Z,3.33
2022-08-22T19:53:05.675Z,2.70
2022-08-22T19:55:37.971Z,2.70
2022-08-22T19:58:35.399Z,3.28
2022-08-22T20:01:28.203Z,2.75
2022-08-22T20:04:01.083Z,2.63
2022-08-22T20:06:44.263Z,2.78
2022-08-22T20:09:23.545Z,2.72
2022-08-22T20:12:25.727Z,2.65
2022-08-22T20:14:52.551Z,3.67
2022-08-22T20:17:25.171Z,3.10
2022-08-22T20:20:17.768Z,3.40
2022-08-22T20:23:15.803Z,3.00
2022-08-22T20:25:48.712Z,2.90
2022-08-22T20:28:46.553Z,3.05
2022-08-22T20:31:22.322Z,3.40
2022-08-22T20:33:58.050Z,3.20
2022-08-22T20:36:28.394Z,3.17
2022-08-22T20:39:01.675Z,3.20
2022-08-22T20:41:35.705Z,3.47
2022-08-22T20:44:21.735Z,3.42
2022-08-22T20:46:53.164Z,3.42
2022-08-22T20:49:24.763Z,3.90
2022-08-22T20:52:21.535Z,3.63
2022-08-22T20:55:24.104Z,3.47
2022-08-22T20:58:01.102Z,3.90
2022-08-22T21:00:49.733Z,3.58
2022-08-22T21:03:49.961Z,3.47
2022-08-22T21:06:20.076Z,3.88
2022-08-22T21:09:08.516Z,4.13
2022-08-22T21:11:40.736Z,4.10
2022-08-22T21:14:21.448Z,3.47
2022-08-22T21:16:48.370Z,3.63
2022-08-22T21:19:20.873Z,3.33
2022-08-22T21:21:47.616Z,3.17
2022-08-22T21:24:14.235Z,4.00
2022-08-22T21:26:49.923Z,4.05
2022-08-22T21:29:16.515Z,3.78
2022-08-22T21:32:09.596Z,4.53
2022-08-22T21:34:42.559Z,3.88
2022-08-22T21:37:14.348Z,3.97
2022-08-22T21:39:49.198Z,3.95
2022-08-22T21:42:25.003Z,3.55
2022-08-22T21:44:58.383Z,3.92
2022-08-22T21:47:37.296Z,3.15
2022-08-22T21:50:12.957Z,2.95
2022-08-22T21:52:46.682Z,3.08
2022-08-22T21:55:26.604Z,3.13
2022-08-22T21:58:12.532Z,3.40
2022-08-22T22:00:51.664Z,2.83
2022-08-22T22:03:27.297Z,2.95
2022-08-22T22:05:58.044Z,2.42
2022-08-22T22:08:25.860Z,2.53
2022-08-22T22:11:01.943Z,2.10
2022-08-22T22:13:31.410Z,2.33
2022-08-22T22:15:58.207Z,3.35
2022-08-22T22:18:29.713Z,2.55
2022-08-22T22:20:57.268Z,2.70
2022-08-22T22:23:25.165Z,2.60
2022-08-22T22:25:54.358Z,2.60
2022-08-22T22:28:29.025Z,2.42
2022-08-22T22:30:56.024Z,2.70
2022-08-22T22:33:25.732Z,2.58
2022-08-22T22:35:54.377Z,2.38
2022-08-22T22:38:24.098Z,2.33
2022-08-22T22:40:52.030Z,2.85
2022-08-22T22:43:19.289Z,3.13
2022-08-22T22:45:46.105Z,2.30
2022-08-22T22:48:15.750Z,2.63
2022-08-22T22:50:53.054Z,2.67
2022-08-22T22:53:21.445Z,2.50
2022-08-22T22:56:00.706Z,2.60
2022-08-22T22:58:28.611Z,2.60
2022-08-22T23:00:56.528Z,3.30
2022-08-22T23:03:23.385Z,2.35
2022-08-22T23:05:49.972Z,3.28
2022-08-22T23:08:16.575Z,2.40
2022-08-22T23:10:43.147Z,2.50
2022-08-22T23:13:09.987Z,2.05
2022-08-22T23:15:37.162Z,2.63
2022-08-22T23:18:03.852Z,2.90
2022-08-22T23:20:30.493Z,2.22
2022-08-22T23:22:57.134Z,2.40
2022-08-22T23:25:24.061Z,2.58
2022-08-22T23:27:52.592Z,2.40
2022-08-22T23:30:20.710Z,2.40
2022-08-22T23:32:47.594Z,2.70
2022-08-22T23:35:14.222Z,2.22
2022-08-22T23:37:40.835Z,2.88
2022-08-22T23:40:09.363Z,2.50
2022-08-22T23:42:36.144Z,2.42
2022-08-22T23:45:03.287Z,2.58
2022-08-22T23:47:30.007Z,2.80
2022-08-22T23:49:56.805Z,2.97
2022-08-22T23:52:23.469Z,2.67
2022-08-22T23:54:54.517Z,2.70
2022-08-22T23:57:26.574Z,2.53
2022-08-22T23:59:57.997Z,3.00
